UAL1909 KIAH-MGGT
Flight info
| Callsign | UAL1909 |
|---|---|
| Flight time | 2h 26m |
| Altitude | 35000 |
| Route | FLYZA5 MUSYL L207 IPSEV DCT CME DCT ASOKU ASOKU2C |
| Aircraft | B738/M-SDE2E3FGHIRWXY/LB1 |
Departure
| Time | 2026-04-26 19:28 |
|---|---|
| Airport | George Bush Intercontinental Airport (KIAH) |
Arrival
| Time | 2026-04-26 21:54 |
|---|---|
| Airport | La Aurora International Airport (MGGT) |
| Time | Latitude | Longitude | Altitude | Speed | Heading |
|---|---|---|---|---|---|
| 2026-04-26 18:56 | 29.98551 | -95.33152 | 106 ft | 0 kts | 272° |
| 2026-04-26 19:11 | 29.98551 | -95.33147 | 106 ft | 4 kts | 273° |
| 2026-04-26 19:11 | 29.98546 | -95.33117 | 105 ft | 4 kts | 295° |
| 2026-04-26 19:11 | 29.98531 | -95.33092 | 104 ft | 4 kts | 325° |
| 2026-04-26 19:11 | 29.98509 | -95.33076 | 106 ft | 4 kts | 315° |
| 2026-04-26 19:12 | 29.98497 | -95.33053 | 106 ft | 4 kts | 261° |
| 2026-04-26 19:12 | 29.98509 | -95.33031 | 104 ft | 4 kts | 204° |
| 2026-04-26 19:12 | 29.98528 | -95.33026 | 105 ft | 4 kts | 180° |
| 2026-04-26 19:12 | 29.98546 | -95.33026 | 105 ft | 0 kts | 180° |
| 2026-04-26 19:15 | 29.98545 | -95.33026 | 105 ft | 1 kts | 180° |
| 2026-04-26 19:15 | 29.98512 | -95.33025 | 104 ft | 10 kts | 179° |
| 2026-04-26 19:15 | 29.98418 | -95.33025 | 106 ft | 16 kts | 180° |
| 2026-04-26 19:16 | 29.98332 | -95.33031 | 106 ft | 1 kts | 200° |
| 2026-04-26 19:16 | 29.98306 | -95.33055 | 106 ft | 8 kts | 233° |
| 2026-04-26 19:16 | 29.98301 | -95.33152 | 106 ft | 16 kts | 269° |
| 2026-04-26 19:16 | 29.98300 | -95.33288 | 106 ft | 25 kts | 269° |
| 2026-04-26 19:17 | 29.98300 | -95.33491 | 106 ft | 25 kts | 271° |
| 2026-04-26 19:17 | 29.98318 | -95.33682 | 106 ft | 23 kts | 274° |
| 2026-04-26 19:17 | 29.98318 | -95.33865 | 106 ft | 22 kts | 269° |
| 2026-04-26 19:17 | 29.98345 | -95.34037 | 106 ft | 22 kts | 299° |
| 2026-04-26 19:18 | 29.98378 | -95.34202 | 106 ft | 21 kts | 270° |
| 2026-04-26 19:18 | 29.98376 | -95.34370 | 106 ft | 21 kts | 269° |
| 2026-04-26 19:18 | 29.98328 | -95.34523 | 106 ft | 20 kts | 259° |
| 2026-04-26 19:18 | 29.98326 | -95.34679 | 105 ft | 19 kts | 268° |
| 2026-04-26 19:19 | 29.98325 | -95.34833 | 106 ft | 19 kts | 270° |
| 2026-04-26 19:19 | 29.98324 | -95.34982 | 106 ft | 18 kts | 269° |
| 2026-04-26 19:19 | 29.98326 | -95.35125 | 106 ft | 18 kts | 277° |
| 2026-04-26 19:19 | 29.98409 | -95.35217 | 105 ft | 17 kts | 332° |
| 2026-04-26 19:20 | 29.98512 | -95.35281 | 105 ft | 16 kts | 332° |
| 2026-04-26 19:20 | 29.98576 | -95.35320 | 106 ft | 15 kts | 332° |
| 2026-04-26 19:20 | 29.98691 | -95.35391 | 106 ft | 8 kts | 332° |
| 2026-04-26 19:20 | 29.98731 | -95.35415 | 106 ft | 6 kts | 332° |
| 2026-04-26 19:21 | 29.98779 | -95.35444 | 106 ft | 10 kts | 332° |
| 2026-04-26 19:21 | 29.98822 | -95.35471 | 106 ft | 5 kts | 332° |
| 2026-04-26 19:21 | 29.98863 | -95.35499 | 106 ft | 9 kts | 323° |
| 2026-04-26 19:21 | 29.98876 | -95.35572 | 106 ft | 9 kts | 246° |
| 2026-04-26 19:22 | 29.98871 | -95.35584 | 106 ft | 0 kts | 243° |
| 2026-04-26 19:22 | 29.98868 | -95.35589 | 106 ft | 0 kts | 243° |
| 2026-04-26 19:23 | 29.98865 | -95.35596 | 106 ft | 3 kts | 243° |
| 2026-04-26 19:23 | 29.98852 | -95.35626 | 106 ft | 6 kts | 242° |
| 2026-04-26 19:23 | 29.98830 | -95.35673 | 106 ft | 5 kts | 242° |
| 2026-04-26 19:24 | 29.98826 | -95.35683 | 106 ft | 0 kts | 243° |
| 2026-04-26 19:25 | 29.98825 | -95.35684 | 105 ft | 1 kts | 242° |
| 2026-04-26 19:25 | 29.98798 | -95.35735 | 106 ft | 6 kts | 230° |
| 2026-04-26 19:25 | 29.98763 | -95.35757 | 108 ft | 6 kts | 189° |
| 2026-04-26 19:26 | 29.98731 | -95.35750 | 108 ft | 1 kts | 157° |
| 2026-04-26 19:26 | 29.98728 | -95.35749 | 108 ft | 0 kts | 156° |
| 2026-04-26 19:27 | 29.98726 | -95.35748 | 108 ft | 1 kts | 156° |
| 2026-04-26 19:27 | 29.98702 | -95.35735 | 107 ft | 12 kts | 153° |
| 2026-04-26 19:27 | 29.98520 | -95.35622 | 107 ft | 61 kts | 152° |
| 2026-04-26 19:27 | 29.97915 | -95.35251 | 108 ft | 133 kts | 152° |
| 2026-04-26 19:28 | 29.96929 | -95.34657 | 376 ft | 172 kts | 153° |
| 2026-04-26 19:28 | 29.95739 | -95.34117 | 1108 ft | 194 kts | 157° |
| 2026-04-26 19:28 | 29.94687 | -95.33196 | 2275 ft | 196 kts | 129° |
| 2026-04-26 19:28 | 29.93892 | -95.31852 | 3165 ft | 206 kts | 128° |
| 2026-04-26 19:29 | 29.93050 | -95.30421 | 3699 ft | 229 kts | 128° |
| 2026-04-26 19:29 | 29.92065 | -95.28837 | 3961 ft | 260 kts | 130° |
| 2026-04-26 19:29 | 29.90913 | -95.27055 | 3982 ft | 293 kts | 130° |
| 2026-04-26 19:29 | 29.89615 | -95.25081 | 3985 ft | 324 kts | 130° |
| 2026-04-26 19:30 | 29.88206 | -95.22923 | 3997 ft | 349 kts | 129° |
| 2026-04-26 19:30 | 29.86754 | -95.20585 | 3999 ft | 368 kts | 128° |
| 2026-04-26 19:30 | 29.85251 | -95.18142 | 3992 ft | 375 kts | 128° |
| 2026-04-26 19:30 | 29.84265 | -95.16544 | 3965 ft | 365 kts | 128° |
| 2026-04-26 19:31 | 29.82288 | -95.13446 | 3950 ft | 355 kts | 134° |
| 2026-04-26 19:31 | 29.80421 | -95.11613 | 4064 ft | 351 kts | 147° |
| 2026-04-26 19:31 | 29.78457 | -95.10021 | 4600 ft | 339 kts | 146° |
| 2026-04-26 19:31 | 29.76601 | -95.08425 | 5209 ft | 326 kts | 146° |
| 2026-04-26 19:32 | 29.74789 | -95.06948 | 5825 ft | 312 kts | 154° |
| 2026-04-26 19:32 | 29.72837 | -95.06039 | 6475 ft | 295 kts | 163° |
| 2026-04-26 19:32 | 29.70939 | -95.05277 | 7070 ft | 283 kts | 163° |
| 2026-04-26 19:32 | 29.69150 | -95.04550 | 7672 ft | 270 kts | 163° |
| 2026-04-26 19:33 | 29.67424 | -95.03836 | 8277 ft | 259 kts | 163° |
| 2026-04-26 19:33 | 29.65698 | -95.03115 | 8809 ft | 269 kts | 163° |
| 2026-04-26 19:33 | 29.63912 | -95.02365 | 9308 ft | 278 kts | 162° |
| 2026-04-26 19:33 | 29.62069 | -95.01588 | 9840 ft | 286 kts | 163° |
| 2026-04-26 19:34 | 29.60173 | -95.00787 | 10319 ft | 295 kts | 163° |
| 2026-04-26 19:34 | 29.58218 | -94.99962 | 10801 ft | 303 kts | 163° |
| 2026-04-26 19:34 | 29.56206 | -94.99114 | 11295 ft | 312 kts | 163° |
| 2026-04-26 19:34 | 29.54136 | -94.98241 | 11790 ft | 321 kts | 162° |
| 2026-04-26 19:35 | 29.52017 | -94.97346 | 12290 ft | 328 kts | 162° |
| 2026-04-26 19:35 | 29.49851 | -94.96431 | 12804 ft | 335 kts | 163° |
| 2026-04-26 19:35 | 29.47647 | -94.95500 | 13308 ft | 341 kts | 162° |
| 2026-04-26 19:35 | 29.45400 | -94.94551 | 13824 ft | 347 kts | 162° |
| 2026-04-26 19:36 | 29.43111 | -94.93586 | 14284 ft | 353 kts | 162° |
| 2026-04-26 19:36 | 29.42360 | -94.93269 | 14440 ft | 355 kts | 162° |
| 2026-04-26 19:36 | 29.39223 | -94.91947 | 15063 ft | 363 kts | 162° |
| 2026-04-26 19:36 | 29.36834 | -94.90940 | 15535 ft | 368 kts | 162° |
| 2026-04-26 19:37 | 29.34415 | -94.89922 | 16007 ft | 373 kts | 163° |
| 2026-04-26 19:37 | 29.31964 | -94.88889 | 16477 ft | 378 kts | 163° |
| 2026-04-26 19:37 | 29.29482 | -94.87846 | 16967 ft | 382 kts | 163° |
| 2026-04-26 19:37 | 29.26978 | -94.86786 | 17473 ft | 386 kts | 161° |
| 2026-04-26 19:38 | 29.24542 | -94.85444 | 17984 ft | 392 kts | 154° |
| 2026-04-26 19:38 | 29.22178 | -94.83864 | 18467 ft | 395 kts | 151° |
| 2026-04-26 19:38 | 29.19831 | -94.82199 | 18923 ft | 398 kts | 150° |
| 2026-04-26 19:38 | 29.17479 | -94.80517 | 19384 ft | 400 kts | 151° |
| 2026-04-26 19:39 | 29.15104 | -94.78836 | 19838 ft | 402 kts | 151° |
| 2026-04-26 19:39 | 29.12707 | -94.77164 | 20310 ft | 405 kts | 152° |
| 2026-04-26 19:39 | 29.10290 | -94.75498 | 20788 ft | 406 kts | 152° |
| 2026-04-26 19:39 | 29.07862 | -94.73839 | 21274 ft | 408 kts | 153° |
| 2026-04-26 19:40 | 29.05420 | -94.72179 | 21761 ft | 409 kts | 153° |
| 2026-04-26 19:40 | 29.02969 | -94.70518 | 22269 ft | 410 kts | 153° |
| 2026-04-26 19:40 | 29.00520 | -94.68862 | 22770 ft | 410 kts | 153° |
| 2026-04-26 19:40 | 28.98059 | -94.67198 | 23286 ft | 410 kts | 153° |
| 2026-04-26 19:41 | 28.95606 | -94.65541 | 23760 ft | 410 kts | 153° |
| 2026-04-26 19:41 | 28.93151 | -94.63884 | 24191 ft | 410 kts | 153° |
| 2026-04-26 19:41 | 28.90697 | -94.62227 | 24643 ft | 409 kts | 154° |
| 2026-04-26 19:41 | 28.89075 | -94.61133 | 24937 ft | 409 kts | 154° |
| 2026-04-26 19:42 | 28.85821 | -94.58939 | 25418 ft | 411 kts | 154° |
| 2026-04-26 19:42 | 28.83352 | -94.57276 | 25805 ft | 412 kts | 153° |
| 2026-04-26 19:42 | 28.80876 | -94.55609 | 26187 ft | 413 kts | 154° |
| 2026-04-26 19:42 | 28.78396 | -94.53940 | 26572 ft | 414 kts | 154° |
| 2026-04-26 19:43 | 28.75915 | -94.52270 | 26962 ft | 414 kts | 154° |
| 2026-04-26 19:43 | 28.73432 | -94.50601 | 27356 ft | 415 kts | 154° |
| 2026-04-26 19:43 | 28.70946 | -94.48930 | 27755 ft | 415 kts | 154° |
| 2026-04-26 19:43 | 28.68462 | -94.47262 | 28156 ft | 414 kts | 154° |
| 2026-04-26 19:44 | 28.65979 | -94.45594 | 28564 ft | 414 kts | 154° |
| 2026-04-26 19:44 | 28.63502 | -94.43932 | 28979 ft | 413 kts | 154° |
| 2026-04-26 19:44 | 28.61034 | -94.42277 | 29397 ft | 411 kts | 154° |
| 2026-04-26 19:44 | 28.58577 | -94.40630 | 29799 ft | 409 kts | 154° |
| 2026-04-26 19:45 | 28.56128 | -94.38989 | 30186 ft | 407 kts | 154° |
| 2026-04-26 19:45 | 28.53681 | -94.37351 | 30426 ft | 409 kts | 154° |
| 2026-04-26 19:45 | 28.51223 | -94.35708 | 30661 ft | 411 kts | 154° |
| 2026-04-26 19:45 | 28.48756 | -94.34060 | 30908 ft | 412 kts | 155° |
| 2026-04-26 19:46 | 28.46283 | -94.32408 | 31137 ft | 413 kts | 155° |
| 2026-04-26 19:46 | 28.43799 | -94.30749 | 31377 ft | 414 kts | 155° |
| 2026-04-26 19:46 | 28.41312 | -94.29088 | 31618 ft | 415 kts | 155° |
| 2026-04-26 19:46 | 28.38818 | -94.27424 | 31858 ft | 416 kts | 155° |
| 2026-04-26 19:47 | 28.36326 | -94.25762 | 32107 ft | 416 kts | 155° |
| 2026-04-26 19:47 | 28.34672 | -94.24659 | 32258 ft | 417 kts | 155° |
| 2026-04-26 19:47 | 28.31360 | -94.22452 | 32589 ft | 417 kts | 155° |
| 2026-04-26 19:47 | 28.28862 | -94.20788 | 32818 ft | 417 kts | 155° |
| 2026-04-26 19:48 | 28.26359 | -94.19123 | 33010 ft | 419 kts | 155° |
| 2026-04-26 19:48 | 28.23800 | -94.17424 | 32722 ft | 435 kts | 155° |
| 2026-04-26 19:48 | 28.21148 | -94.15665 | 32582 ft | 446 kts | 154° |
| 2026-04-26 19:48 | 28.18466 | -94.13882 | 32781 ft | 447 kts | 155° |
| 2026-04-26 19:49 | 28.15657 | -94.12445 | 32908 ft | 438 kts | 174° |
| 2026-04-26 19:49 | 28.12692 | -94.11771 | 33144 ft | 434 kts | 176° |
| 2026-04-26 19:49 | 28.09712 | -94.11160 | 33307 ft | 437 kts | 177° |
| 2026-04-26 19:49 | 28.06716 | -94.10543 | 33485 ft | 439 kts | 176° |
| 2026-04-26 19:50 | 28.03707 | -94.09910 | 33669 ft | 441 kts | 176° |
| 2026-04-26 19:50 | 28.00684 | -94.09260 | 33838 ft | 443 kts | 176° |
| 2026-04-26 19:50 | 27.97651 | -94.08596 | 33998 ft | 445 kts | 176° |
| 2026-04-26 19:50 | 27.94607 | -94.07923 | 34161 ft | 446 kts | 176° |
| 2026-04-26 19:51 | 27.91554 | -94.07244 | 34322 ft | 448 kts | 176° |
| 2026-04-26 19:51 | 27.88493 | -94.06563 | 34479 ft | 449 kts | 176° |
| 2026-04-26 19:51 | 27.85421 | -94.05879 | 34644 ft | 450 kts | 176° |
| 2026-04-26 19:51 | 27.82343 | -94.05195 | 34805 ft | 451 kts | 176° |
| 2026-04-26 19:52 | 27.79257 | -94.04509 | 34952 ft | 453 kts | 176° |
| 2026-04-26 19:52 | 27.76145 | -94.03821 | 34951 ft | 458 kts | 176° |
| 2026-04-26 19:52 | 27.69814 | -94.02424 | 34971 ft | 469 kts | 175° |
| 2026-04-26 19:53 | 27.63341 | -94.00994 | 34972 ft | 479 kts | 175° |
| 2026-04-26 19:53 | 27.56727 | -93.99533 | 34971 ft | 489 kts | 175° |
| 2026-04-26 19:54 | 27.49981 | -93.98043 | 34963 ft | 499 kts | 175° |
| 2026-04-26 19:54 | 27.43118 | -93.96529 | 34964 ft | 506 kts | 175° |
| 2026-04-26 19:55 | 27.36201 | -93.95003 | 34948 ft | 507 kts | 175° |
| 2026-04-26 19:55 | 27.29275 | -93.93478 | 34950 ft | 507 kts | 175° |
| 2026-04-26 19:56 | 27.22344 | -93.91956 | 34950 ft | 507 kts | 175° |
| 2026-04-26 19:56 | 27.15469 | -93.90448 | 34948 ft | 506 kts | 175° |
| 2026-04-26 19:57 | 27.08518 | -93.88926 | 34941 ft | 505 kts | 174° |
| 2026-04-26 19:57 | 27.01676 | -93.87430 | 34946 ft | 504 kts | 174° |
| 2026-04-26 19:58 | 26.94760 | -93.85919 | 34953 ft | 503 kts | 174° |
| 2026-04-26 19:58 | 26.87946 | -93.84432 | 34948 ft | 502 kts | 175° |
| 2026-04-26 19:59 | 26.81099 | -93.82939 | 34932 ft | 501 kts | 174° |
| 2026-04-26 19:59 | 26.74264 | -93.81451 | 34943 ft | 500 kts | 174° |
| 2026-04-26 20:00 | 26.67440 | -93.79967 | 34948 ft | 499 kts | 174° |
| 2026-04-26 20:00 | 26.60620 | -93.78485 | 34951 ft | 499 kts | 174° |
| 2026-04-26 20:01 | 26.53860 | -93.76611 | 34943 ft | 506 kts | 163° |
| 2026-04-26 20:01 | 26.47548 | -93.72994 | 34946 ft | 511 kts | 154° |
| 2026-04-26 20:02 | 26.41356 | -93.69064 | 34945 ft | 512 kts | 154° |
| 2026-04-26 20:02 | 26.36195 | -93.65824 | 34948 ft | 512 kts | 154° |
| 2026-04-26 20:03 | 26.28903 | -93.61322 | 34948 ft | 513 kts | 154° |
| 2026-04-26 20:03 | 26.22648 | -93.57491 | 34950 ft | 513 kts | 155° |
| 2026-04-26 20:04 | 26.16387 | -93.53661 | 34942 ft | 513 kts | 154° |
| 2026-04-26 20:04 | 26.10123 | -93.49829 | 34948 ft | 514 kts | 154° |
| 2026-04-26 20:05 | 26.03858 | -93.46001 | 34949 ft | 514 kts | 154° |
| 2026-04-26 20:05 | 25.97593 | -93.42177 | 34943 ft | 514 kts | 154° |
| 2026-04-26 20:06 | 25.91329 | -93.38358 | 34945 ft | 514 kts | 154° |
| 2026-04-26 20:06 | 25.85072 | -93.34548 | 34933 ft | 512 kts | 154° |
| 2026-04-26 20:07 | 25.78823 | -93.30748 | 34946 ft | 512 kts | 154° |
| 2026-04-26 20:07 | 25.72583 | -93.26957 | 34949 ft | 511 kts | 154° |
| 2026-04-26 20:08 | 25.66352 | -93.23178 | 34947 ft | 510 kts | 154° |
| 2026-04-26 20:08 | 25.60126 | -93.19405 | 34939 ft | 510 kts | 154° |
| 2026-04-26 20:09 | 25.53910 | -93.15643 | 34947 ft | 509 kts | 154° |
| 2026-04-26 20:09 | 25.47699 | -93.11889 | 34948 ft | 508 kts | 154° |
| 2026-04-26 20:10 | 25.41494 | -93.08142 | 34943 ft | 508 kts | 154° |
| 2026-04-26 20:10 | 25.35289 | -93.04400 | 34957 ft | 508 kts | 154° |
| 2026-04-26 20:11 | 25.29084 | -93.00663 | 34937 ft | 508 kts | 154° |
| 2026-04-26 20:12 | 25.19834 | -92.95099 | 34943 ft | 507 kts | 154° |
| 2026-04-26 20:12 | 25.13640 | -92.91379 | 34942 ft | 507 kts | 154° |
| 2026-04-26 20:13 | 25.07448 | -92.87664 | 34948 ft | 506 kts | 154° |
| 2026-04-26 20:13 | 25.01254 | -92.83953 | 34947 ft | 506 kts | 154° |
| 2026-04-26 20:14 | 24.95068 | -92.80251 | 34940 ft | 506 kts | 154° |
| 2026-04-26 20:14 | 24.88881 | -92.76552 | 34942 ft | 506 kts | 154° |
| 2026-04-26 20:15 | 24.82699 | -92.72860 | 34952 ft | 505 kts | 154° |
| 2026-04-26 20:15 | 24.76516 | -92.69172 | 34951 ft | 505 kts | 154° |
| 2026-04-26 20:16 | 24.70334 | -92.65489 | 34955 ft | 505 kts | 154° |
| 2026-04-26 20:16 | 24.64150 | -92.61808 | 34948 ft | 505 kts | 154° |
| 2026-04-26 20:17 | 24.57964 | -92.58129 | 34951 ft | 505 kts | 154° |
| 2026-04-26 20:17 | 24.51736 | -92.54559 | 34941 ft | 503 kts | 161° |
| 2026-04-26 20:18 | 24.45070 | -92.52595 | 34947 ft | 493 kts | 178° |
| 2026-04-26 20:18 | 24.38252 | -92.51773 | 34948 ft | 493 kts | 178° |
| 2026-04-26 20:19 | 24.31433 | -92.50964 | 34944 ft | 493 kts | 178° |
| 2026-04-26 20:19 | 24.24619 | -92.50109 | 34947 ft | 493 kts | 177° |
| 2026-04-26 20:20 | 24.17799 | -92.49227 | 34944 ft | 493 kts | 177° |
| 2026-04-26 20:20 | 24.10980 | -92.48340 | 34944 ft | 494 kts | 177° |
| 2026-04-26 20:21 | 24.04201 | -92.47461 | 34932 ft | 494 kts | 177° |
| 2026-04-26 20:21 | 23.97376 | -92.46578 | 34940 ft | 494 kts | 177° |
| 2026-04-26 20:22 | 23.90549 | -92.45697 | 34943 ft | 494 kts | 177° |
| 2026-04-26 20:22 | 23.83719 | -92.44817 | 34941 ft | 494 kts | 177° |
| 2026-04-26 20:23 | 23.77998 | -92.44080 | 34946 ft | 494 kts | 177° |
| 2026-04-26 20:23 | 23.71206 | -92.43206 | 34934 ft | 495 kts | 177° |
| 2026-04-26 20:24 | 23.64370 | -92.42327 | 34948 ft | 495 kts | 177° |
| 2026-04-26 20:24 | 23.57530 | -92.41448 | 34942 ft | 495 kts | 177° |
| 2026-04-26 20:25 | 23.50685 | -92.40570 | 34943 ft | 495 kts | 177° |
| 2026-04-26 20:25 | 23.43842 | -92.39693 | 34933 ft | 495 kts | 177° |
| 2026-04-26 20:26 | 23.36991 | -92.38816 | 34935 ft | 496 kts | 177° |
| 2026-04-26 20:26 | 23.30142 | -92.37940 | 34941 ft | 496 kts | 177° |
| 2026-04-26 20:27 | 23.23291 | -92.37065 | 34940 ft | 496 kts | 177° |
| 2026-04-26 20:27 | 23.16433 | -92.36189 | 34940 ft | 496 kts | 177° |
| 2026-04-26 20:28 | 23.09572 | -92.35315 | 34940 ft | 496 kts | 177° |
| 2026-04-26 20:28 | 23.02708 | -92.34440 | 34933 ft | 497 kts | 177° |
| 2026-04-26 20:29 | 22.95842 | -92.33567 | 34939 ft | 497 kts | 177° |
| 2026-04-26 20:29 | 22.88967 | -92.32693 | 34939 ft | 497 kts | 177° |
| 2026-04-26 20:30 | 22.82091 | -92.31820 | 34935 ft | 498 kts | 177° |
| 2026-04-26 20:30 | 22.75207 | -92.30947 | 34926 ft | 498 kts | 177° |
| 2026-04-26 20:31 | 22.68322 | -92.30074 | 34933 ft | 498 kts | 177° |
| 2026-04-26 20:31 | 22.61429 | -92.29202 | 34933 ft | 499 kts | 177° |
| 2026-04-26 20:32 | 22.54528 | -92.28329 | 34942 ft | 500 kts | 177° |
| 2026-04-26 20:32 | 22.47665 | -92.27462 | 34937 ft | 500 kts | 177° |
| 2026-04-26 20:33 | 22.40752 | -92.26590 | 34927 ft | 500 kts | 177° |
| 2026-04-26 20:33 | 22.33831 | -92.25717 | 34939 ft | 501 kts | 177° |
| 2026-04-26 20:34 | 22.26912 | -92.24845 | 34932 ft | 501 kts | 177° |
| 2026-04-26 20:34 | 22.19984 | -92.23973 | 34932 ft | 501 kts | 177° |
| 2026-04-26 20:35 | 22.13055 | -92.23102 | 34932 ft | 501 kts | 177° |
| 2026-04-26 20:35 | 22.06127 | -92.22232 | 34928 ft | 501 kts | 177° |
| 2026-04-26 20:36 | 21.99195 | -92.21363 | 34930 ft | 501 kts | 177° |
| 2026-04-26 20:36 | 21.92251 | -92.20492 | 34929 ft | 502 kts | 177° |
| 2026-04-26 20:37 | 21.85312 | -92.19624 | 34927 ft | 502 kts | 177° |
| 2026-04-26 20:37 | 21.78373 | -92.18756 | 34927 ft | 502 kts | 177° |
| 2026-04-26 20:38 | 21.71427 | -92.17888 | 34922 ft | 502 kts | 177° |
| 2026-04-26 20:38 | 21.64487 | -92.17021 | 34928 ft | 502 kts | 177° |
| 2026-04-26 20:39 | 21.57536 | -92.16154 | 34924 ft | 503 kts | 177° |
| 2026-04-26 20:39 | 21.50590 | -92.15289 | 34924 ft | 503 kts | 177° |
| 2026-04-26 20:40 | 21.43638 | -92.14423 | 34923 ft | 503 kts | 177° |
| 2026-04-26 20:40 | 21.36683 | -92.13558 | 34924 ft | 503 kts | 177° |
| 2026-04-26 20:41 | 21.29732 | -92.12694 | 34924 ft | 503 kts | 177° |
| 2026-04-26 20:41 | 21.22777 | -92.11831 | 34922 ft | 503 kts | 177° |
| 2026-04-26 20:42 | 21.15829 | -92.10970 | 34920 ft | 503 kts | 177° |
| 2026-04-26 20:42 | 21.08880 | -92.10109 | 34907 ft | 503 kts | 177° |
| 2026-04-26 20:43 | 21.01977 | -92.09254 | 34918 ft | 502 kts | 177° |
| 2026-04-26 20:43 | 20.95029 | -92.08395 | 34919 ft | 503 kts | 177° |
| 2026-04-26 20:44 | 20.88081 | -92.07537 | 34915 ft | 503 kts | 177° |
| 2026-04-26 20:44 | 20.81123 | -92.06678 | 34911 ft | 503 kts | 177° |
| 2026-04-26 20:45 | 20.74166 | -92.05820 | 34904 ft | 503 kts | 176° |
| 2026-04-26 20:45 | 20.67210 | -92.04963 | 34908 ft | 503 kts | 176° |
| 2026-04-26 20:46 | 20.60246 | -92.04106 | 34907 ft | 504 kts | 176° |
| 2026-04-26 20:46 | 20.53276 | -92.03249 | 34906 ft | 504 kts | 176° |
| 2026-04-26 20:47 | 20.46303 | -92.02392 | 34908 ft | 504 kts | 176° |
| 2026-04-26 20:47 | 20.39327 | -92.01536 | 34902 ft | 505 kts | 176° |
| 2026-04-26 20:48 | 20.32350 | -92.00680 | 34903 ft | 505 kts | 176° |
| 2026-04-26 20:48 | 20.25386 | -91.99827 | 34899 ft | 505 kts | 176° |
| 2026-04-26 20:49 | 20.18401 | -91.98972 | 34895 ft | 505 kts | 176° |
| 2026-04-26 20:49 | 20.11417 | -91.98117 | 34889 ft | 505 kts | 176° |
| 2026-04-26 20:50 | 20.04430 | -91.97264 | 34891 ft | 505 kts | 176° |
| 2026-04-26 20:50 | 19.97451 | -91.96411 | 34896 ft | 505 kts | 176° |
| 2026-04-26 20:51 | 19.90467 | -91.95559 | 34890 ft | 505 kts | 176° |
| 2026-04-26 20:51 | 19.83478 | -91.94708 | 34889 ft | 505 kts | 176° |
| 2026-04-26 20:52 | 19.76496 | -91.93858 | 34881 ft | 505 kts | 176° |
| 2026-04-26 20:52 | 19.69506 | -91.93007 | 34886 ft | 505 kts | 176° |
| 2026-04-26 20:53 | 19.62522 | -91.92158 | 34882 ft | 505 kts | 176° |
| 2026-04-26 20:53 | 19.55533 | -91.91309 | 34884 ft | 505 kts | 176° |
| 2026-04-26 20:54 | 19.48545 | -91.90462 | 34887 ft | 506 kts | 176° |
| 2026-04-26 20:54 | 19.41556 | -91.89615 | 34871 ft | 505 kts | 176° |
| 2026-04-26 20:55 | 19.34572 | -91.88768 | 34871 ft | 505 kts | 176° |
| 2026-04-26 20:55 | 19.27593 | -91.87924 | 34870 ft | 505 kts | 176° |
| 2026-04-26 20:56 | 19.20625 | -91.87081 | 34869 ft | 505 kts | 176° |
| 2026-04-26 20:56 | 19.13651 | -91.86239 | 34866 ft | 504 kts | 176° |
| 2026-04-26 20:57 | 19.06680 | -91.85397 | 34856 ft | 504 kts | 176° |
| 2026-04-26 20:57 | 18.99712 | -91.84557 | 34858 ft | 504 kts | 176° |
| 2026-04-26 20:58 | 18.92790 | -91.83723 | 34860 ft | 504 kts | 176° |
| 2026-04-26 20:58 | 18.85823 | -91.82884 | 34869 ft | 504 kts | 176° |
| 2026-04-26 20:59 | 18.78863 | -91.82046 | 34876 ft | 504 kts | 176° |
| 2026-04-26 20:59 | 18.71898 | -91.81209 | 34878 ft | 503 kts | 176° |
| 2026-04-26 21:00 | 18.64942 | -91.80369 | 34886 ft | 503 kts | 175° |
| 2026-04-26 21:00 | 18.58001 | -91.79289 | 34877 ft | 504 kts | 173° |
| 2026-04-26 21:01 | 18.51077 | -91.78074 | 34868 ft | 504 kts | 173° |
| 2026-04-26 21:01 | 18.44148 | -91.76880 | 34865 ft | 504 kts | 173° |
| 2026-04-26 21:02 | 18.37218 | -91.75721 | 34843 ft | 504 kts | 173° |
| 2026-04-26 21:02 | 18.30281 | -91.74575 | 34819 ft | 504 kts | 173° |
| 2026-04-26 21:03 | 18.23348 | -91.73431 | 34827 ft | 504 kts | 173° |
| 2026-04-26 21:03 | 18.16414 | -91.72286 | 34824 ft | 505 kts | 173° |
| 2026-04-26 21:04 | 18.09476 | -91.71140 | 34818 ft | 505 kts | 173° |
| 2026-04-26 21:04 | 18.02538 | -91.69995 | 34816 ft | 505 kts | 173° |
| 2026-04-26 21:05 | 17.95598 | -91.68851 | 34819 ft | 505 kts | 173° |
| 2026-04-26 21:05 | 17.88658 | -91.67708 | 34829 ft | 505 kts | 173° |
| 2026-04-26 21:06 | 17.81717 | -91.66565 | 34826 ft | 505 kts | 173° |
| 2026-04-26 21:06 | 17.74756 | -91.65420 | 34476 ft | 508 kts | 173° |
| 2026-04-26 21:06 | 17.71318 | -91.64855 | 34200 ft | 505 kts | 173° |
| 2026-04-26 21:07 | 17.67858 | -91.64286 | 33875 ft | 501 kts | 173° |
| 2026-04-26 21:07 | 17.64432 | -91.63722 | 33529 ft | 496 kts | 173° |
| 2026-04-26 21:07 | 17.61034 | -91.63163 | 33161 ft | 492 kts | 173° |
| 2026-04-26 21:07 | 17.57667 | -91.62610 | 32807 ft | 488 kts | 173° |
| 2026-04-26 21:08 | 17.54323 | -91.62061 | 32455 ft | 485 kts | 173° |
| 2026-04-26 21:08 | 17.51003 | -91.61517 | 32114 ft | 481 kts | 173° |
| 2026-04-26 21:08 | 17.48773 | -91.61152 | 31876 ft | 480 kts | 173° |
| 2026-04-26 21:08 | 17.44421 | -91.60439 | 31445 ft | 476 kts | 173° |
| 2026-04-26 21:09 | 17.41158 | -91.59904 | 31107 ft | 474 kts | 173° |
| 2026-04-26 21:09 | 17.37910 | -91.59373 | 30778 ft | 471 kts | 173° |
| 2026-04-26 21:09 | 17.34679 | -91.58844 | 30454 ft | 469 kts | 173° |
| 2026-04-26 21:09 | 17.31458 | -91.58316 | 30146 ft | 467 kts | 173° |
| 2026-04-26 21:10 | 17.28257 | -91.57793 | 29825 ft | 465 kts | 173° |
| 2026-04-26 21:10 | 17.26102 | -91.57440 | 29569 ft | 464 kts | 173° |
| 2026-04-26 21:10 | 17.22962 | -91.56927 | 29208 ft | 462 kts | 173° |
| 2026-04-26 21:10 | 17.19799 | -91.56410 | 28836 ft | 459 kts | 173° |
| 2026-04-26 21:11 | 17.16647 | -91.55896 | 28480 ft | 457 kts | 173° |
| 2026-04-26 21:11 | 17.13517 | -91.55384 | 28135 ft | 454 kts | 173° |
| 2026-04-26 21:11 | 17.10402 | -91.54875 | 27779 ft | 451 kts | 173° |
| 2026-04-26 21:11 | 17.07304 | -91.54370 | 27420 ft | 449 kts | 173° |
| 2026-04-26 21:12 | 17.04226 | -91.53868 | 27096 ft | 446 kts | 172° |
| 2026-04-26 21:12 | 17.01176 | -91.53370 | 26761 ft | 442 kts | 172° |
| 2026-04-26 21:12 | 16.98149 | -91.52876 | 26416 ft | 439 kts | 172° |
| 2026-04-26 21:12 | 16.95147 | -91.52387 | 26085 ft | 435 kts | 172° |
| 2026-04-26 21:13 | 16.92162 | -91.51900 | 25749 ft | 432 kts | 172° |
| 2026-04-26 21:13 | 16.89203 | -91.51419 | 25429 ft | 429 kts | 172° |
| 2026-04-26 21:13 | 16.86263 | -91.50940 | 25114 ft | 426 kts | 172° |
| 2026-04-26 21:13 | 16.83343 | -91.50465 | 24792 ft | 424 kts | 172° |
| 2026-04-26 21:14 | 16.80435 | -91.49991 | 24471 ft | 422 kts | 172° |
| 2026-04-26 21:14 | 16.77544 | -91.49521 | 24169 ft | 419 kts | 172° |
| 2026-04-26 21:14 | 16.74667 | -91.49054 | 23868 ft | 418 kts | 172° |
| 2026-04-26 21:14 | 16.71806 | -91.48589 | 23556 ft | 416 kts | 172° |
| 2026-04-26 21:15 | 16.68952 | -91.48125 | 23231 ft | 414 kts | 171° |
| 2026-04-26 21:15 | 16.66117 | -91.47664 | 22866 ft | 412 kts | 171° |
| 2026-04-26 21:15 | 16.63296 | -91.47206 | 22497 ft | 409 kts | 171° |
| 2026-04-26 21:15 | 16.60487 | -91.46750 | 22156 ft | 407 kts | 171° |
| 2026-04-26 21:16 | 16.57693 | -91.46296 | 21809 ft | 405 kts | 171° |
| 2026-04-26 21:16 | 16.54915 | -91.45845 | 21457 ft | 404 kts | 171° |
| 2026-04-26 21:16 | 16.52142 | -91.45395 | 21115 ft | 402 kts | 171° |
| 2026-04-26 21:16 | 16.49388 | -91.44949 | 20784 ft | 400 kts | 171° |
| 2026-04-26 21:17 | 16.46643 | -91.44503 | 20441 ft | 399 kts | 171° |
| 2026-04-26 21:17 | 16.43911 | -91.44060 | 20114 ft | 397 kts | 171° |
| 2026-04-26 21:17 | 16.41187 | -91.43619 | 19788 ft | 395 kts | 171° |
| 2026-04-26 21:17 | 16.38473 | -91.43179 | 19461 ft | 394 kts | 170° |
| 2026-04-26 21:18 | 16.35773 | -91.42741 | 19165 ft | 392 kts | 170° |
| 2026-04-26 21:18 | 16.33077 | -91.42303 | 18832 ft | 391 kts | 170° |
| 2026-04-26 21:18 | 16.30429 | -91.41875 | 18527 ft | 390 kts | 170° |
| 2026-04-26 21:18 | 16.27721 | -91.41437 | 18219 ft | 388 kts | 170° |
| 2026-04-26 21:19 | 16.25098 | -91.41014 | 17947 ft | 385 kts | 170° |
| 2026-04-26 21:19 | 16.22468 | -91.40588 | 17932 ft | 380 kts | 170° |
| 2026-04-26 21:19 | 16.19860 | -91.40166 | 17938 ft | 380 kts | 170° |
| 2026-04-26 21:19 | 16.17238 | -91.39742 | 17938 ft | 382 kts | 169° |
| 2026-04-26 21:20 | 16.14611 | -91.39317 | 17930 ft | 382 kts | 170° |
| 2026-04-26 21:20 | 16.11986 | -91.38893 | 17939 ft | 381 kts | 170° |
| 2026-04-26 21:20 | 16.09369 | -91.38470 | 17938 ft | 380 kts | 169° |
| 2026-04-26 21:20 | 16.06835 | -91.37734 | 17926 ft | 375 kts | 150° |
| 2026-04-26 21:21 | 16.04579 | -91.36380 | 17939 ft | 374 kts | 146° |
| 2026-04-26 21:21 | 16.02356 | -91.34974 | 17946 ft | 375 kts | 146° |
| 2026-04-26 21:21 | 16.00128 | -91.33553 | 17941 ft | 376 kts | 146° |
| 2026-04-26 21:21 | 15.97897 | -91.32135 | 17942 ft | 376 kts | 146° |
| 2026-04-26 21:22 | 15.95661 | -91.30723 | 17950 ft | 377 kts | 146° |
| 2026-04-26 21:22 | 15.93415 | -91.29311 | 17937 ft | 377 kts | 146° |
| 2026-04-26 21:22 | 15.91194 | -91.27922 | 17983 ft | 378 kts | 146° |
| 2026-04-26 21:23 | 15.86685 | -91.25111 | 17983 ft | 378 kts | 146° |
| 2026-04-26 21:23 | 15.84425 | -91.23704 | 17985 ft | 379 kts | 146° |
| 2026-04-26 21:23 | 15.82166 | -91.22298 | 17977 ft | 378 kts | 146° |
| 2026-04-26 21:23 | 15.79911 | -91.20892 | 17947 ft | 377 kts | 146° |
| 2026-04-26 21:24 | 15.77662 | -91.19490 | 17984 ft | 377 kts | 146° |
| 2026-04-26 21:24 | 15.75411 | -91.18094 | 17993 ft | 378 kts | 147° |
| 2026-04-26 21:24 | 15.73137 | -91.16717 | 17995 ft | 378 kts | 146° |
| 2026-04-26 21:24 | 15.70880 | -91.15313 | 17980 ft | 378 kts | 146° |
| 2026-04-26 21:25 | 15.68634 | -91.13904 | 17985 ft | 377 kts | 147° |
| 2026-04-26 21:25 | 15.66379 | -91.12498 | 18021 ft | 379 kts | 147° |
| 2026-04-26 21:25 | 15.64111 | -91.11089 | 17982 ft | 380 kts | 147° |
| 2026-04-26 21:25 | 15.61846 | -91.09681 | 17985 ft | 379 kts | 146° |
| 2026-04-26 21:26 | 15.59587 | -91.08276 | 18016 ft | 379 kts | 147° |
| 2026-04-26 21:26 | 15.57320 | -91.06871 | 17992 ft | 380 kts | 146° |
| 2026-04-26 21:26 | 15.55055 | -91.05465 | 17960 ft | 378 kts | 147° |
| 2026-04-26 21:26 | 15.52804 | -91.04069 | 17968 ft | 376 kts | 146° |
| 2026-04-26 21:27 | 15.50562 | -91.02678 | 17986 ft | 375 kts | 147° |
| 2026-04-26 21:27 | 15.48319 | -91.01288 | 18003 ft | 375 kts | 147° |
| 2026-04-26 21:27 | 15.46082 | -90.99903 | 18002 ft | 375 kts | 146° |
| 2026-04-26 21:27 | 15.43840 | -90.98514 | 18010 ft | 375 kts | 146° |
| 2026-04-26 21:28 | 15.41599 | -90.97124 | 17997 ft | 376 kts | 147° |
| 2026-04-26 21:28 | 15.39355 | -90.95734 | 18004 ft | 376 kts | 147° |
| 2026-04-26 21:28 | 15.37107 | -90.94344 | 18008 ft | 376 kts | 147° |
| 2026-04-26 21:28 | 15.34857 | -90.92952 | 18031 ft | 376 kts | 147° |
| 2026-04-26 21:29 | 15.32615 | -90.91563 | 18052 ft | 375 kts | 147° |
| 2026-04-26 21:29 | 15.30376 | -90.90172 | 18009 ft | 373 kts | 146° |
| 2026-04-26 21:29 | 15.28184 | -90.88753 | 18080 ft | 374 kts | 147° |
| 2026-04-26 21:29 | 15.25912 | -90.87410 | 18024 ft | 377 kts | 148° |
| 2026-04-26 21:30 | 15.23635 | -90.86060 | 17856 ft | 378 kts | 147° |
| 2026-04-26 21:30 | 15.21376 | -90.84663 | 17604 ft | 377 kts | 147° |
| 2026-04-26 21:30 | 15.19144 | -90.83266 | 17341 ft | 373 kts | 146° |
| 2026-04-26 21:30 | 15.16931 | -90.81882 | 17008 ft | 371 kts | 147° |
| 2026-04-26 21:31 | 15.14721 | -90.80509 | 16647 ft | 369 kts | 147° |
| 2026-04-26 21:31 | 15.12533 | -90.79154 | 16268 ft | 362 kts | 147° |
| 2026-04-26 21:31 | 15.10394 | -90.77832 | 15893 ft | 354 kts | 146° |
| 2026-04-26 21:31 | 15.08303 | -90.76541 | 15533 ft | 347 kts | 147° |
| 2026-04-26 21:32 | 15.06249 | -90.75274 | 15199 ft | 340 kts | 148° |
| 2026-04-26 21:32 | 15.04239 | -90.74034 | 14853 ft | 334 kts | 147° |
| 2026-04-26 21:32 | 15.02258 | -90.72812 | 14498 ft | 329 kts | 147° |
| 2026-04-26 21:32 | 15.00328 | -90.71622 | 14166 ft | 325 kts | 147° |
| 2026-04-26 21:33 | 14.98402 | -90.70434 | 13828 ft | 320 kts | 147° |
| 2026-04-26 21:33 | 14.96502 | -90.69263 | 13462 ft | 316 kts | 147° |
| 2026-04-26 21:33 | 14.94644 | -90.68119 | 13084 ft | 305 kts | 146° |
| 2026-04-26 21:33 | 14.92845 | -90.67011 | 12667 ft | 297 kts | 147° |
| 2026-04-26 21:34 | 14.91091 | -90.65930 | 12290 ft | 289 kts | 146° |
| 2026-04-26 21:34 | 14.89389 | -90.64882 | 11900 ft | 280 kts | 146° |
| 2026-04-26 21:34 | 14.87735 | -90.63864 | 11452 ft | 274 kts | 146° |
| 2026-04-26 21:34 | 14.86110 | -90.62864 | 10970 ft | 269 kts | 146° |
| 2026-04-26 21:35 | 14.84558 | -90.61821 | 10499 ft | 263 kts | 140° |
| 2026-04-26 21:35 | 14.83167 | -90.60629 | 10055 ft | 257 kts | 133° |
| 2026-04-26 21:35 | 14.81954 | -90.59300 | 9554 ft | 252 kts | 126° |
| 2026-04-26 21:35 | 14.80897 | -90.57877 | 9053 ft | 248 kts | 121° |
| 2026-04-26 21:36 | 14.79938 | -90.56410 | 8579 ft | 245 kts | 122° |
| 2026-04-26 21:36 | 14.79303 | -90.55455 | 8336 ft | 240 kts | 121° |
| 2026-04-26 21:36 | 14.78092 | -90.53636 | 8151 ft | 219 kts | 123° |
| 2026-04-26 21:36 | 14.77265 | -90.52399 | 8125 ft | 203 kts | 122° |
| 2026-04-26 21:37 | 14.76430 | -90.51210 | 8181 ft | 205 kts | 128° |
| 2026-04-26 21:37 | 14.75396 | -90.50194 | 8198 ft | 204 kts | 139° |
| 2026-04-26 21:37 | 14.74189 | -90.49435 | 7987 ft | 205 kts | 153° |
| 2026-04-26 21:37 | 14.72854 | -90.48958 | 7640 ft | 201 kts | 167° |
| 2026-04-26 21:38 | 14.71493 | -90.48814 | 7308 ft | 194 kts | 180° |
| 2026-04-26 21:38 | 14.70179 | -90.48963 | 6991 ft | 188 kts | 190° |
| 2026-04-26 21:38 | 14.68953 | -90.49315 | 6667 ft | 183 kts | 195° |
| 2026-04-26 21:38 | 14.67760 | -90.49705 | 6399 ft | 179 kts | 197° |
| 2026-04-26 21:39 | 14.66564 | -90.50095 | 6033 ft | 179 kts | 198° |
| 2026-04-26 21:39 | 14.65382 | -90.50474 | 5700 ft | 174 kts | 198° |
| 2026-04-26 21:39 | 14.64254 | -90.50838 | 5519 ft | 164 kts | 199° |
| 2026-04-26 21:39 | 14.63282 | -90.51147 | 5853 ft | 135 kts | 197° |
| 2026-04-26 21:40 | 14.62373 | -90.51522 | 5604 ft | 156 kts | 200° |
| 2026-04-26 21:40 | 14.61391 | -90.51846 | 5705 ft | 145 kts | 194° |
| 2026-04-26 21:40 | 14.60366 | -90.52127 | 5353 ft | 163 kts | 193° |
| 2026-04-26 21:40 | 14.59214 | -90.52440 | 5265 ft | 186 kts | 198° |
| 2026-04-26 21:41 | 14.57954 | -90.52910 | 5488 ft | 202 kts | 199° |
| 2026-04-26 21:41 | 14.56708 | -90.53602 | 5819 ft | 209 kts | 218° |
| 2026-04-26 21:41 | 14.55794 | -90.54736 | 6061 ft | 198 kts | 235° |
| 2026-04-26 21:41 | 14.55209 | -90.55967 | 6280 ft | 189 kts | 252° |
| 2026-04-26 21:42 | 14.55004 | -90.57331 | 6233 ft | 193 kts | 265° |
| 2026-04-26 21:42 | 14.55098 | -90.58709 | 6273 ft | 194 kts | 278° |
| 2026-04-26 21:42 | 14.55539 | -90.60019 | 6330 ft | 193 kts | 299° |
| 2026-04-26 21:42 | 14.56479 | -90.60971 | 6425 ft | 191 kts | 329° |
| 2026-04-26 21:43 | 14.57763 | -90.61306 | 6453 ft | 194 kts | 1° |
| 2026-04-26 21:43 | 14.59077 | -90.61083 | 6496 ft | 191 kts | 12° |
| 2026-04-26 21:43 | 14.60389 | -90.60797 | 6499 ft | 194 kts | 12° |
| 2026-04-26 21:43 | 14.61721 | -90.60517 | 6507 ft | 194 kts | 12° |
| 2026-04-26 21:44 | 14.63028 | -90.60181 | 6594 ft | 194 kts | 16° |
| 2026-04-26 21:44 | 14.64323 | -90.59812 | 6643 ft | 193 kts | 15° |
| 2026-04-26 21:44 | 14.65609 | -90.59438 | 6705 ft | 192 kts | 16° |
| 2026-04-26 21:44 | 14.66886 | -90.59069 | 6760 ft | 189 kts | 15° |
| 2026-04-26 21:45 | 14.68144 | -90.58703 | 6825 ft | 187 kts | 17° |
| 2026-04-26 21:45 | 14.69389 | -90.58354 | 6899 ft | 185 kts | 17° |
| 2026-04-26 21:45 | 14.70630 | -90.58011 | 6954 ft | 185 kts | 16° |
| 2026-04-26 21:45 | 14.71865 | -90.57663 | 7054 ft | 182 kts | 16° |
| 2026-04-26 21:46 | 14.73069 | -90.57322 | 7127 ft | 182 kts | 15° |
| 2026-04-26 21:46 | 14.74303 | -90.56976 | 7180 ft | 182 kts | 16° |
| 2026-04-26 21:46 | 14.75529 | -90.56634 | 7172 ft | 186 kts | 16° |
| 2026-04-26 21:46 | 14.76792 | -90.56285 | 7141 ft | 190 kts | 15° |
| 2026-04-26 21:47 | 14.78072 | -90.55932 | 7131 ft | 191 kts | 16° |
| 2026-04-26 21:47 | 14.79352 | -90.55574 | 7134 ft | 190 kts | 18° |
| 2026-04-26 21:47 | 14.80477 | -90.54901 | 7131 ft | 188 kts | 47° |
| 2026-04-26 21:47 | 14.81132 | -90.53753 | 7144 ft | 186 kts | 69° |
| 2026-04-26 21:48 | 14.81562 | -90.52487 | 7134 ft | 188 kts | 74° |
| 2026-04-26 21:48 | 14.81910 | -90.51175 | 7105 ft | 191 kts | 76° |
| 2026-04-26 21:48 | 14.82251 | -90.49849 | 7087 ft | 191 kts | 76° |
| 2026-04-26 21:48 | 14.82398 | -90.48486 | 7062 ft | 191 kts | 89° |
| 2026-04-26 21:49 | 14.82365 | -90.47109 | 7010 ft | 193 kts | 103° |
| 2026-04-26 21:49 | 14.81722 | -90.45930 | 6917 ft | 189 kts | 141° |
| 2026-04-26 21:49 | 14.80527 | -90.45466 | 6874 ft | 187 kts | 180° |
| 2026-04-26 21:49 | 14.79271 | -90.45797 | 6862 ft | 188 kts | 199° |
| 2026-04-26 21:50 | 14.78032 | -90.46262 | 6840 ft | 191 kts | 199° |
| 2026-04-26 21:50 | 14.77184 | -90.46574 | 6805 ft | 193 kts | 198° |
| 2026-04-26 21:50 | 14.75492 | -90.47182 | 6742 ft | 198 kts | 198° |
| 2026-04-26 21:50 | 14.74168 | -90.47655 | 6646 ft | 204 kts | 197° |
| 2026-04-26 21:51 | 14.72820 | -90.48123 | 6557 ft | 204 kts | 198° |
| 2026-04-26 21:51 | 14.71469 | -90.48574 | 6440 ft | 204 kts | 198° |
| 2026-04-26 21:51 | 14.70122 | -90.49035 | 6374 ft | 205 kts | 197° |
| 2026-04-26 21:51 | 14.68778 | -90.49494 | 6240 ft | 200 kts | 197° |
| 2026-04-26 21:52 | 14.67512 | -90.49912 | 6169 ft | 182 kts | 196° |
| 2026-04-26 21:52 | 14.66373 | -90.50274 | 6170 ft | 162 kts | 197° |
| 2026-04-26 21:52 | 14.65315 | -90.50609 | 6166 ft | 159 kts | 197° |
| 2026-04-26 21:52 | 14.64175 | -90.50981 | 6200 ft | 183 kts | 198° |
| 2026-04-26 21:53 | 14.62958 | -90.51382 | 6096 ft | 181 kts | 197° |
| 2026-04-26 21:53 | 14.61812 | -90.51752 | 5797 ft | 168 kts | 195° |
| 2026-04-26 21:53 | 14.60721 | -90.52031 | 5444 ft | 158 kts | 193° |
| 2026-04-26 21:53 | 14.59691 | -90.52299 | 5145 ft | 146 kts | 198° |
| 2026-04-26 21:54 | 14.58758 | -90.52617 | 4950 ft | 131 kts | 196° |
| 2026-04-26 21:54 | 14.58018 | -90.52841 | 4913 ft | 82 kts | 199° |
| 2026-04-26 21:54 | 14.57684 | -90.52950 | 4894 ft | 19 kts | 197° |
| 2026-04-26 21:54 | 14.57653 | -90.52961 | 4898 ft | 2 kts | 200° |
| 2026-04-26 21:55 | 14.57638 | -90.52967 | 4899 ft | 2 kts | 197° |
| 2026-04-26 21:55 | 14.57625 | -90.52971 | 4898 ft | 1 kts | 195° |
| 2026-04-26 21:55 | 14.57621 | -90.52973 | 4900 ft | 0 kts | 198° |
| 2026-04-26 21:56 | 14.57615 | -90.52975 | 4899 ft | 2 kts | 194° |
| 2026-04-26 21:56 | 14.57594 | -90.52981 | 4895 ft | 4 kts | 199° |
| 2026-04-26 21:56 | 14.57562 | -90.52993 | 4892 ft | 6 kts | 200° |
| 2026-04-26 21:56 | 14.57512 | -90.53011 | 4896 ft | 9 kts | 197° |
| 2026-04-26 21:57 | 14.57453 | -90.53046 | 4893 ft | 10 kts | 225° |
| 2026-04-26 21:57 | 14.57442 | -90.53061 | 4887 ft | 0 kts | 229° |
| 2026-04-26 22:01 | 14.57440 | -90.53062 | 4888 ft | 8 kts | 194° |
| 2026-04-26 22:01 | 14.57481 | -90.53092 | 4895 ft | 15 kts | 4° |
| 2026-04-26 22:02 | 14.57575 | -90.53063 | 4896 ft | 15 kts | 17° |
| 2026-04-26 22:02 | 14.57678 | -90.53029 | 4900 ft | 15 kts | 17° |
| 2026-04-26 22:02 | 14.57771 | -90.52999 | 4903 ft | 15 kts | 17° |
| 2026-04-26 22:02 | 14.57875 | -90.52966 | 4907 ft | 15 kts | 17° |
| 2026-04-26 22:03 | 14.57978 | -90.52932 | 4913 ft | 15 kts | 17° |
| 2026-04-26 22:03 | 14.58082 | -90.52899 | 4920 ft | 15 kts | 17° |
| 2026-04-26 22:03 | 14.58186 | -90.52865 | 4926 ft | 15 kts | 17° |
| 2026-04-26 22:03 | 14.58289 | -90.52832 | 4929 ft | 15 kts | 17° |
| 2026-04-26 22:04 | 14.58393 | -90.52798 | 4929 ft | 15 kts | 17° |
| 2026-04-26 22:04 | 14.58497 | -90.52765 | 4929 ft | 15 kts | 17° |
| 2026-04-26 22:04 | 14.58600 | -90.52731 | 4931 ft | 15 kts | 17° |
| 2026-04-26 22:04 | 14.58696 | -90.52700 | 4940 ft | 8 kts | 17° |
| 2026-04-26 22:05 | 14.58732 | -90.52681 | 4938 ft | 8 kts | 0° |
| 2026-04-26 22:05 | 14.58775 | -90.52709 | 4940 ft | 7 kts | 309° |
| 2026-04-26 22:05 | 14.58812 | -90.52747 | 4940 ft | 8 kts | 324° |
| 2026-04-26 22:05 | 14.58868 | -90.52781 | 4941 ft | 15 kts | 352° |
| 2026-04-26 22:06 | 14.58973 | -90.52760 | 4941 ft | 15 kts | 22° |
| 2026-04-26 22:06 | 14.59067 | -90.52727 | 4941 ft | 15 kts | 17° |
| 2026-04-26 22:06 | 14.59122 | -90.52702 | 4941 ft | 8 kts | 40° |
| 2026-04-26 22:06 | 14.59202 | -90.52738 | 4941 ft | 11 kts | 297° |
| 2026-04-26 22:07 | 14.59235 | -90.52833 | 4941 ft | 15 kts | 288° |
| 2026-04-26 22:07 | 14.59230 | -90.52831 | 4941 ft | 8 kts | 40° |
| 2026-04-26 22:07 | 14.59234 | -90.52791 | 4941 ft | 8 kts | 99° |
| 2026-04-26 22:07 | 14.59247 | -90.52825 | 4941 ft | 8 kts | 147° |
| 2026-04-26 22:08 | 14.59241 | -90.52864 | 4941 ft | 7 kts | 266° |
| 2026-04-26 22:08 | 14.59226 | -90.52920 | 4941 ft | 9 kts | 243° |
| 2026-04-26 22:08 | 14.59166 | -90.52965 | 4941 ft | 15 kts | 195° |
| 2026-04-26 22:08 | 14.59081 | -90.52989 | 4941 ft | 8 kts | 197° |
| 2026-04-26 22:09 | 14.59057 | -90.52999 | 4941 ft | 7 kts | 180° |
| 2026-04-26 22:09 | 14.59043 | -90.52958 | 4941 ft | 7 kts | 95° |
| 2026-04-26 22:09 | 14.59038 | -90.52940 | 4941 ft | 1 kts | 115° |